Time;durP1;ratioP1;P1;durP2;ratioP2;P2;SDS_P1;SDS_P2;PMS_P1;PMS_P2;Temp;Humidity;BMP_temperature;BMP_pressure;BME280_temperature;BME280_humidity;BME280_pressure;Samples;Min_cycle;Max_cycle;Signal;HPM_P1;HPM_P2
2023/11/09 00:00:46;;;;;;;7.18;3.80;;;10.10;99.90;;;;;;5052104;28;20385;-72
2023/11/09 00:03:12;;;;;;;4.30;3.23;;;10.10;99.90;;;;;;5058084;28;20381;-73
2023/11/09 00:05:37;;;;;;;6.00;3.50;;;10.20;99.90;;;;;;5058913;28;20426;-72
2023/11/09 00:08:03;;;;;;;5.18;3.50;;;10.20;99.90;;;;;;5059075;28;20402;-72
2023/11/09 00:10:29;;;;;;;5.85;3.47;;;10.30;99.90;;;;;;5058681;28;20396;-72
2023/11/09 00:12:58;;;;;;;8.85;3.60;;;10.30;99.70;;;;;;5056041;28;20393;-71
2023/11/09 00:15:26;;;;;;;7.25;4.00;;;10.20;99.90;;;;;;5053242;28;20369;-71
2023/11/09 00:17:52;;;;;;;6.87;3.50;;;10.10;99.90;;;;;;5050779;28;20385;-71
2023/11/09 00:20:19;;;;;;;6.45;3.33;;;10.10;99.90;;;;;;5050650;28;20381;-71
2023/11/09 00:22:47;;;;;;;8.05;3.70;;;10.10;99.90;;;;;;5032918;28;20488;-72
2023/11/09 00:25:13;;;;;;;7.65;3.60;;;10.10;99.90;;;;;;5050962;28;20389;-71
2023/11/09 00:27:39;;;;;;;5.20;3.60;;;10.10;99.90;;;;;;5050839;28;20384;-72
2023/11/09 00:30:06;;;;;;;4.87;3.40;;;10.10;99.90;;;;;;5051123;28;20384;-70
2023/11/09 00:32:32;;;;;;;6.32;3.30;;;10.10;99.90;;;;;;5050168;28;20483;-70
2023/11/09 00:34:58;;;;;;;8.50;3.90;;;10.00;99.90;;;;;;5050467;28;20730;-70
2023/11/09 00:37:28;;;;;;;9.38;3.40;;;10.00;99.90;;;;;;5050343;28;20392;-70
2023/11/09 00:39:54;;;;;;;9.10;3.47;;;10.10;99.90;;;;;;5050349;28;20435;-70
2023/11/09 00:42:21;;;;;;;5.20;3.45;;;10.00;99.90;;;;;;5050436;28;20471;-70
2023/11/09 00:44:47;;;;;;;4.57;2.95;;;10.10;99.90;;;;;;5050329;28;20368;-70
2023/11/09 00:47:13;;;;;;;8.25;3.35;;;10.10;99.90;;;;;;5050163;28;20710;-71
2023/11/09 00:49:38;;;;;;;5.25;2.90;;;10.10;99.90;;;;;;5050319;28;20397;-70
2023/11/09 00:52:04;;;;;;;4.80;2.90;;;10.20;99.90;;;;;;5050098;28;20412;-70
2023/11/09 00:54:30;;;;;;;6.53;3.10;;;10.20;99.90;;;;;;5051314;28;20385;-70
2023/11/09 00:56:55;;;;;;;5.00;2.40;;;10.10;99.90;;;;;;5051781;28;20386;-70
2023/11/09 00:59:21;;;;;;;3.37;2.17;;;10.20;99.90;;;;;;5051210;28;20439;-70
2023/11/09 01:01:46;;;;;;;7.97;2.80;;;10.20;99.90;;;;;;5050673;28;20439;-70
2023/11/09 01:04:12;;;;;;;4.50;2.67;;;10.20;99.70;;;;;;5051082;28;20745;-71
2023/11/09 01:06:37;;;;;;;3.10;2.10;;;10.20;99.90;;;;;;5033940;28;20924;-71
2023/11/09 01:09:03;;;;;;;5.15;2.20;;;10.30;98.60;;;;;;5050729;28;20390;-71
2023/11/09 01:11:29;;;;;;;3.10;2.38;;;10.30;98.20;;;;;;5050097;28;20416;-71
2023/11/09 01:13:54;;;;;;;4.20;2.47;;;10.30;98.10;;;;;;5050252;28;20475;-71
2023/11/09 01:16:21;;;;;;;3.65;2.60;;;10.20;99.90;;;;;;5050602;28;20378;-71
2023/11/09 01:18:50;;;;;;;6.40;2.67;;;10.20;99.90;;;;;;5053954;28;20381;-71
2023/11/09 01:21:16;;;;;;;3.90;3.00;;;10.20;99.90;;;;;;5055373;28;20400;-71
2023/11/09 01:23:42;;;;;;;5.70;3.15;;;10.20;99.90;;;;;;5055744;28;20752;-71
2023/11/09 01:26:09;;;;;;;4.47;3.17;;;10.20;99.90;;;;;;5056470;28;20390;-71
2023/11/09 01:28:35;;;;;;;6.43;3.50;;;10.20;99.90;;;;;;5058923;28;20378;-71
2023/11/09 01:31:00;;;;;;;6.95;3.30;;;10.20;99.90;;;;;;5059934;28;20409;-71
2023/11/09 01:33:28;;;;;;;6.93;3.35;;;10.20;99.10;;;;;;5060090;28;20417;-71
2023/11/09 01:35:53;;;;;;;7.20;3.30;;;10.20;99.90;;;;;;5058540;28;20443;-71
2023/11/09 01:38:19;;;;;;;4.78;3.30;;;10.20;99.90;;;;;;5059217;28;20402;-70
2023/11/09 01:40:51;;;;;;;6.85;3.20;;;10.20;99.60;;;;;;5059278;28;20767;-70
2023/11/09 01:43:17;;;;;;;6.70;3.42;;;10.20;99.60;;;;;;5060226;28;20381;-70
2023/11/09 01:45:44;;;;;;;3.63;3.28;;;10.30;99.00;;;;;;5064537;28;20385;-70
2023/11/09 01:48:11;;;;;;;4.55;3.30;;;10.20;99.00;;;;;;5064531;28;20880;-70
2023/11/09 01:50:37;;;;;;;4.13;3.10;;;10.20;99.90;;;;;;5060887;28;20381;-70
2023/11/09 01:53:06;;;;;;;6.50;3.20;;;10.30;98.40;;;;;;5057910;28;20864;-70
2023/11/09 01:55:33;;;;;;;4.28;3.10;;;10.30;99.20;;;;;;5053988;28;20369;-70
2023/11/09 01:57:59;;;;;;;6.80;3.30;;;10.30;99.90;;;;;;5053310;28;20412;-70
2023/11/09 02:00:24;;;;;;;7.05;3.63;;;10.30;99.90;;;;;;5053075;28;20414;-70
2023/11/09 02:02:53;;;;;;;4.70;3.20;;;10.30;99.90;;;;;;5053706;28;20396;-70
2023/11/09 02:05:19;;;;;;;4.45;3.30;;;10.40;99.90;;;;;;5053556;28;20420;-70
2023/11/09 02:07:44;;;;;;;6.13;3.40;;;10.40;99.20;;;;;;5053251;28;20900;-70
2023/11/09 02:10:11;;;;;;;5.10;3.28;;;10.30;99.90;;;;;;5036069;28;20900;-70
2023/11/09 02:12:37;;;;;;;6.93;3.90;;;10.30;99.10;;;;;;5060817;28;20400;-70
2023/11/09 02:15:03;;;;;;;7.50;3.60;;;10.30;99.90;;;;;;5064548;28;20381;-71
2023/11/09 02:17:29;;;;;;;4.55;3.40;;;10.30;99.40;;;;;;5062962;28;20837;-70
2023/11/09 02:19:55;;;;;;;5.50;3.60;;;10.30;99.90;;;;;;5063996;28;20498;-70
2023/11/09 02:22:26;;;;;;;5.28;3.35;;;10.30;99.30;;;;;;5053875;28;20417;-70
2023/11/09 02:24:55;;;;;;;6.53;3.00;;;10.40;98.60;;;;;;5052758;28;20451;-70
2023/11/09 02:27:21;;;;;;;6.70;3.50;;;10.40;97.00;;;;;;5052440;28;20772;-70
2023/11/09 02:29:46;;;;;;;3.80;2.80;;;10.40;96.70;;;;;;5052910;28;20467;-70
2023/11/09 02:32:12;;;;;;;3.20;2.90;;;10.40;95.60;;;;;;5052628;28;20491;-70
2023/11/09 02:34:37;;;;;;;5.15;3.40;;;10.40;96.20;;;;;;5042128;28;20859;-71
2023/11/09 02:37:09;;;;;;;6.35;2.83;;;10.40;95.30;;;;;;5066220;28;20385;-70
2023/11/09 02:39:35;;;;;;;4.70;2.80;;;10.50;94.30;;;;;;5066376;28;20469;-71
2023/11/09 02:42:01;;;;;;;4.63;2.50;;;10.50;94.20;;;;;;5067625;28;20378;-70
2023/11/09 02:44:26;;;;;;;4.32;2.40;;;10.50;95.20;;;;;;5063550;28;20385;-71
2023/11/09 02:46:52;;;;;;;4.30;2.53;;;10.40;94.60;;;;;;5052185;28;20393;-70
2023/11/09 02:49:18;;;;;;;3.22;2.22;;;10.40;95.30;;;;;;5052291;28;20756;-71
2023/11/09 02:51:44;;;;;;;6.05;2.50;;;10.40;95.00;;;;;;5052056;28;20467;-70
2023/11/09 02:54:09;;;;;;;3.30;2.43;;;10.40;95.20;;;;;;5052424;28;20457;-71
2023/11/09 02:56:36;;;;;;;4.13;2.60;;;10.50;94.90;;;;;;5051319;28;20389;-71
2023/11/09 02:59:02;;;;;;;4.53;2.70;;;10.50;94.40;;;;;;5051814;28;20406;-70
2023/11/09 03:01:28;;;;;;;3.20;2.30;;;10.50;93.70;;;;;;5051800;28;20397;-70
2023/11/09 03:03:54;;;;;;;2.60;2.40;;;10.50;93.60;;;;;;5052141;28;20447;-71
2023/11/09 03:06:20;;;;;;;3.22;2.30;;;10.60;92.30;;;;;;5051740;28;20455;-71
2023/11/09 03:08:46;;;;;;;5.32;2.50;;;10.50;94.30;;;;;;5051548;28;20729;-70
2023/11/09 03:11:16;;;;;;;5.75;2.30;;;10.40;94.80;;;;;;5051997;28;20828;-71
2023/11/09 03:13:42;;;;;;;4.72;2.58;;;10.60;94.40;;;;;;5051752;28;20449;-70
2023/11/09 03:16:08;;;;;;;4.50;2.17;;;10.50;93.70;;;;;;5051627;28;20456;-71
2023/11/09 03:18:34;;;;;;;4.72;2.47;;;10.40;94.60;;;;;;5051704;28;20390;-70
2023/11/09 03:21:00;;;;;;;3.35;2.55;;;10.40;94.90;;;;;;5051541;28;20381;-71
2023/11/09 03:23:26;;;;;;;3.92;2.30;;;10.50;95.40;;;;;;5051820;28;20746;-71
2023/11/09 03:25:52;;;;;;;3.30;2.30;;;10.50;94.10;;;;;;5051550;28;20420;-71
2023/11/09 03:28:18;;;;;;;7.60;2.80;;;10.50;94.50;;;;;;5051269;28;20697;-71
2023/11/09 03:30:44;;;;;;;4.32;2.30;;;10.50;94.70;;;;;;5051228;28;20421;-71
2023/11/09 03:33:09;;;;;;;4.03;2.43;;;10.50;93.40;;;;;;5051238;28;20393;-70
2023/11/09 03:35:36;;;;;;;4.07;2.53;;;10.50;92.80;;;;;;5051492;28;20474;-71
2023/11/09 03:38:01;;;;;;;3.80;2.75;;;10.50;93.00;;;;;;5050785;28;20381;-71
2023/11/09 03:40:27;;;;;;;3.97;2.20;;;10.40;95.20;;;;;;5051012;28;20384;-71
2023/11/09 03:42:52;;;;;;;4.53;2.80;;;10.50;95.00;;;;;;5051106;28;20827;-70
2023/11/09 03:45:18;;;;;;;4.67;2.40;;;10.60;92.90;;;;;;5051025;28;20463;-71
2023/11/09 03:47:44;;;;;;;4.00;2.47;;;10.50;91.50;;;;;;5050916;28;20405;-71
2023/11/09 03:50:11;;;;;;;2.08;1.95;;;10.50;91.80;;;;;;5050832;28;20390;-71
2023/11/09 03:52:39;;;;;;;3.72;2.60;;;10.60;91.00;;;;;;5051018;28;20769;-71
2023/11/09 03:55:07;;;;;;;2.95;2.40;;;10.60;91.20;;;;;;5050808;28;20439;-71
2023/11/09 03:57:32;;;;;;;3.80;2.33;;;10.50;92.80;;;;;;5050964;28;20386;-71
2023/11/09 03:59:58;;;;;;;3.10;1.90;;;10.50;93.40;;;;;;5051058;28;20466;-71
2023/11/09 04:02:24;;;;;;;5.53;2.17;;;10.50;92.40;;;;;;5051391;28;20876;-71
2023/11/09 04:04:49;;;;;;;3.27;1.60;;;10.60;91.00;;;;;;5051269;28;20480;-71
2023/11/09 04:07:15;;;;;;;3.10;1.40;;;10.60;90.00;;;;;;5053093;28;20417;-71
2023/11/09 04:09:41;;;;;;;2.60;1.20;;;10.60;88.90;;;;;;5053539;28;20423;-71
2023/11/09 04:12:07;;;;;;;3.40;1.00;;;10.60;90.40;;;;;;5052087;28;20503;-70
2023/11/09 04:14:32;;;;;;;2.50;1.10;;;10.70;88.60;;;;;;5050719;28;20397;-70
2023/11/09 04:16:58;;;;;;;1.00;0.70;;;10.80;86.80;;;;;;5050522;28;20779;-70
2023/11/09 04:19:24;;;;;;;1.50;1.00;;;10.80;85.10;;;;;;5050611;28;20478;-70
2023/11/09 04:21:50;;;;;;;2.00;0.90;;;10.80;85.50;;;;;;5032664;28;20389;-70
2023/11/09 04:24:15;;;;;;;2.40;1.00;;;10.90;83.70;;;;;;5050811;28;20936;-70
2023/11/09 04:26:42;;;;;;;1.00;0.80;;;10.90;81.80;;;;;;5050461;28;20420;-70
2023/11/09 04:29:10;;;;;;;1.00;0.80;;;10.90;81.20;;;;;;5050272;28;20413;-70
2023/11/09 04:31:37;;;;;;;1.20;0.77;;;10.90;81.50;;;;;;5050346;28;20405;-70
2023/11/09 04:34:08;;;;;;;2.88;1.00;;;10.90;81.10;;;;;;5050470;28;20389;-70
2023/11/09 04:36:40;;;;;;;1.20;0.80;;;11.00;79.70;;;;;;5050371;28;20381;-70
2023/11/09 04:39:06;;;;;;;1.40;0.70;;;10.90;81.10;;;;;;5050158;28;20457;-70
2023/11/09 04:41:31;;;;;;;2.00;0.90;;;10.90;80.30;;;;;;5050434;28;20468;-70
2023/11/09 04:43:57;;;;;;;1.05;0.70;;;11.00;78.60;;;;;;5050236;28;20751;-70
2023/11/09 04:46:23;;;;;;;1.70;0.80;;;11.00;79.50;;;;;;5050271;28;20926;-70
2023/11/09 04:48:50;;;;;;;0.90;0.70;;;11.00;79.30;;;;;;5032029;28;20412;-70
2023/11/09 04:51:22;;;;;;;1.70;0.80;;;11.10;77.60;;;;;;5050091;28;20401;-70
2023/11/09 04:53:51;;;;;;;1.25;0.80;;;11.10;78.50;;;;;;5050095;28;20894;-70
2023/11/09 04:56:38;;;;;;;3.30;0.80;;;11.10;78.00;;;;;;5050221;28;20448;-70
2023/11/09 05:07:19;;;;;;;2.53;0.90;;;11.00;79.00;;;;;;5050302;28;20586;-71
2023/11/09 05:09:45;;;;;;;1.30;0.80;;;11.10;78.50;;;;;;5049932;28;20492;-71
2023/11/09 05:12:11;;;;;;;1.60;1.10;;;11.00;79.30;;;;;;5049907;28;20436;-70
2023/11/09 05:14:36;;;;;;;1.52;0.90;;;11.00;80.40;;;;;;5032058;28;20396;-70
2023/11/09 05:17:02;;;;;;;2.10;0.80;;;11.00;81.30;;;;;;5049685;28;20840;-70
2023/11/09 05:19:28;;;;;;;3.20;1.00;;;11.10;79.80;;;;;;5051329;28;20388;-71
2023/11/09 05:21:53;;;;;;;1.20;0.90;;;11.00;78.70;;;;;;5036012;28;20737;-70
2023/11/09 05:24:19;;;;;;;2.70;1.10;;;11.10;79.30;;;;;;5053698;28;20420;-70
2023/11/09 05:26:46;;;;;;;3.00;0.80;;;11.10;78.70;;;;;;5053828;28;20683;-70
2023/11/09 05:29:11;;;;;;;1.90;0.80;;;11.10;77.90;;;;;;5053310;28;20392;-71
2023/11/09 05:31:38;;;;;;;1.80;1.20;;;11.10;78.20;;;;;;5053445;28;20405;-71
2023/11/09 05:34:04;;;;;;;1.00;0.70;;;11.10;77.60;;;;;;5053672;28;20867;-71
2023/11/09 05:36:34;;;;;;;1.60;0.75;;;11.20;73.80;;;;;;5054023;28;20476;-71
2023/11/09 05:39:00;;;;;;;2.30;0.70;;;11.20;72.30;;;;;;5053467;28;20400;-70
2023/11/09 05:41:26;;;;;;;1.00;0.75;;;11.30;71.40;;;;;;5053780;28;20382;-71
2023/11/09 05:43:51;;;;;;;1.75;1.00;;;11.20;72.50;;;;;;5053541;28;20737;-70
2023/11/09 05:46:19;;;;;;;1.88;1.00;;;11.20;72.70;;;;;;5052749;28;20510;-70
2023/11/09 05:48:44;;;;;;;1.65;1.40;;;11.20;72.60;;;;;;5053067;28;20393;-70
2023/11/09 05:51:10;;;;;;;3.65;1.80;;;11.20;73.80;;;;;;5053290;28;20775;-70
2023/11/09 05:53:36;;;;;;;4.40;1.70;;;11.10;75.70;;;;;;5053356;28;20893;-71
2023/11/09 05:56:02;;;;;;;1.77;1.35;;;11.20;76.20;;;;;;5035394;28;20940;-70
2023/11/09 05:58:28;;;;;;;2.20;1.20;;;11.10;78.50;;;;;;5034940;28;20519;-71
2023/11/09 06:00:54;;;;;;;3.80;1.42;;;11.00;79.50;;;;;;5053188;28;20472;-70
2023/11/09 06:03:20;;;;;;;2.13;1.20;;;11.00;82.70;;;;;;5052981;28;20386;-71
2023/11/09 06:05:46;;;;;;;1.48;0.90;;;10.90;83.50;;;;;;5052933;28;20465;-70
2023/11/09 06:08:12;;;;;;;1.50;0.90;;;11.00;83.30;;;;;;5034975;28;20500;-70
2023/11/09 06:10:38;;;;;;;1.60;0.90;;;10.90;83.80;;;;;;5052921;28;20413;-70
2023/11/09 06:13:03;;;;;;;2.40;0.90;;;10.90;85.30;;;;;;5052997;28;20985;-71
2023/11/09 06:15:29;;;;;;;1.58;0.80;;;10.80;86.20;;;;;;5052787;28;20378;-70
2023/11/09 06:17:56;;;;;;;1.50;0.80;;;10.80;87.90;;;;;;5052661;28;20378;-70
2023/11/09 06:20:21;;;;;;;1.20;0.90;;;10.80;87.20;;;;;;5052618;28;20386;-70
2023/11/09 06:22:48;;;;;;;2.80;1.02;;;10.70;88.60;;;;;;5052629;28;20460;-71
2023/11/09 06:25:14;;;;;;;1.40;0.88;;;10.70;89.60;;;;;;5052174;28;20474;-70
2023/11/09 06:27:41;;;;;;;1.20;0.80;;;10.70;91.90;;;;;;5052203;28;20686;-71
2023/11/09 06:30:07;;;;;;;4.50;1.10;;;10.70;92.00;;;;;;5052235;28;20411;-70
2023/11/09 06:32:34;;;;;;;1.90;1.00;;;10.70;92.30;;;;;;5051799;28;20405;-71
2023/11/09 06:35:03;;;;;;;2.10;1.20;;;10.70;92.80;;;;;;5052693;28;20373;-71
2023/11/09 06:37:33;;;;;;;3.50;1.52;;;10.80;90.60;;;;;;5051872;28;20392;-71
2023/11/09 06:39:59;;;;;;;2.08;1.30;;;10.80;90.90;;;;;;5052733;28;20411;-72
2023/11/09 06:42:25;;;;;;;2.30;1.98;;;10.70;92.40;;;;;;5053103;28;21032;-72
2023/11/09 06:44:52;;;;;;;4.13;1.80;;;10.60;94.40;;;;;;5052139;28;20405;-70
2023/11/09 06:47:18;;;;;;;3.00;1.95;;;10.60;96.00;;;;;;5051513;28;20439;-71
2023/11/09 06:49:44;;;;;;;2.72;2.10;;;10.60;96.40;;;;;;5050728;28;20382;-70
2023/11/09 06:52:09;;;;;;;3.33;2.25;;;10.60;97.00;;;;;;5051015;28;20402;-70
2023/11/09 06:54:35;;;;;;;2.40;2.10;;;10.70;94.50;;;;;;5050986;28;20906;-70
2023/11/09 06:57:02;;;;;;;2.58;2.05;;;10.70;95.00;;;;;;5050804;28;20381;-73
2023/11/09 06:59:28;;;;;;;3.00;1.90;;;10.70;95.60;;;;;;5033213;28;20392;-72
2023/11/09 07:01:54;;;;;;;2.05;1.70;;;10.60;95.30;;;;;;5052653;28;20464;-71
2023/11/09 07:04:23;;;;;;;3.50;2.30;;;10.60;96.20;;;;;;5051887;28;20424;-71
2023/11/09 07:06:48;;;;;;;4.75;2.40;;;10.60;95.50;;;;;;5051029;28;20884;-71
2023/11/09 07:09:15;;;;;;;5.40;2.90;;;10.60;96.10;;;;;;5050549;28;20398;-70
2023/11/09 07:11:42;;;;;;;3.13;2.00;;;10.60;96.90;;;;;;5050479;28;20404;-71
2023/11/09 07:14:10;;;;;;;3.50;2.80;;;10.60;97.60;;;;;;5050421;28;20447;-71
2023/11/09 07:16:36;;;;;;;2.50;2.20;;;10.60;98.90;;;;;;5051220;28;20377;-70
2023/11/09 07:19:01;;;;;;;3.40;2.10;;;10.60;97.80;;;;;;5050624;28;20401;-71
2023/11/09 07:21:27;;;;;;;4.28;2.00;;;10.60;97.30;;;;;;5050506;28;20864;-71
2023/11/09 07:23:59;;;;;;;3.10;2.45;;;10.70;97.40;;;;;;5051054;28;20798;-71
2023/11/09 07:26:26;;;;;;;3.22;2.30;;;10.60;98.30;;;;;;5051320;28;20389;-72
2023/11/09 07:28:53;;;;;;;5.43;2.08;;;10.70;99.10;;;;;;5033037;28;20392;-71
2023/11/09 07:31:20;;;;;;;3.00;1.70;;;10.70;95.90;;;;;;5051431;28;20930;-71
2023/11/09 07:33:46;;;;;;;3.45;2.30;;;10.70;97.00;;;;;;5051520;28;20385;-71
2023/11/09 07:36:12;;;;;;;2.50;2.30;;;10.70;98.60;;;;;;5050843;28;20380;-70
2023/11/09 07:38:37;;;;;;;2.23;2.13;;;10.70;99.10;;;;;;5050513;28;20393;-71
2023/11/09 07:41:03;;;;;;;5.60;2.63;;;10.70;98.70;;;;;;5050745;28;20377;-72
2023/11/09 07:43:31;;;;;;;7.60;3.88;;;10.60;99.90;;;;;;5051025;28;20377;-72
2023/11/09 07:45:56;;;;;;;11.02;6.75;;;10.60;99.90;;;;;;5050142;28;20428;-72
2023/11/09 07:48:24;;;;;;;6.30;2.90;;;10.70;99.90;;;;;;4987828;28;1762720;-72
2023/11/09 07:50:50;;;;;;;5.55;2.90;;;10.70;99.90;;;;;;5051166;28;20400;-71
2023/11/09 07:53:16;;;;;;;4.30;2.90;;;10.60;99.90;;;;;;5050821;28;20986;-69
2023/11/09 07:55:42;;;;;;;5.63;2.78;;;10.70;99.90;;;;;;5050952;28;20437;-70
2023/11/09 07:58:08;;;;;;;7.38;2.30;;;10.70;99.90;;;;;;5050583;28;20393;-70
2023/11/09 08:00:34;;;;;;;3.05;2.10;;;10.70;99.90;;;;;;5051196;28;20384;-71
2023/11/09 08:03:01;;;;;;;3.70;2.30;;;10.70;99.90;;;;;;5051046;28;20393;-70
2023/11/09 08:05:29;;;;;;;3.80;2.60;;;10.80;99.90;;;;;;5050725;28;20457;-71
2023/11/09 08:07:54;;;;;;;3.53;2.50;;;10.80;99.90;;;;;;5050245;28;20716;-71
2023/11/09 08:10:21;;;;;;;7.50;2.30;;;10.80;99.90;;;;;;5051004;28;20491;-71
2023/11/09 08:12:47;;;;;;;5.30;2.25;;;10.80;99.90;;;;;;5051519;28;20808;-71
2023/11/09 08:15:13;;;;;;;3.25;2.00;;;10.90;98.90;;;;;;5051476;28;20901;-71
2023/11/09 08:17:40;;;;;;;4.72;2.25;;;10.90;97.50;;;;;;5050976;28;20460;-70
2023/11/09 08:20:19;;;;;;;7.38;2.40;;;10.90;98.60;;;;;;5032786;28;20389;-70
2023/11/09 08:22:45;;;;;;;5.93;2.88;;;10.90;98.10;;;;;;5051050;28;20833;-70
2023/11/09 08:25:15;;;;;;;5.25;2.60;;;10.90;99.10;;;;;;5050689;28;20449;-70
2023/11/09 08:27:41;;;;;;;3.10;1.85;;;11.00;95.50;;;;;;5050186;28;20404;-71
2023/11/09 08:30:11;;;;;;;3.97;2.00;;;11.00;95.10;;;;;;5050141;28;20396;-71
2023/11/09 08:32:37;;;;;;;5.07;2.50;;;11.00;93.50;;;;;;5050363;28;20423;-71
2023/11/09 08:35:10;;;;;;;5.53;2.35;;;11.00;93.60;;;;;;5032710;28;20389;-71
2023/11/09 08:37:37;;;;;;;6.70;2.42;;;11.00;92.90;;;;;;5050696;28;20381;-71
2023/11/09 08:40:09;;;;;;;6.13;2.95;;;11.10;89.90;;;;;;5050420;28;20373;-71
2023/11/09 08:42:38;;;;;;;6.43;3.10;;;11.10;90.60;;;;;;5050850;28;20876;-71
2023/11/09 08:45:09;;;;;;;6.70;3.30;;;11.10;89.50;;;;;;5050558;28;20473;-71
2023/11/09 08:47:35;;;;;;;5.78;2.90;;;11.10;89.40;;;;;;5050286;28;20411;-71
2023/11/09 08:50:01;;;;;;;8.05;3.10;;;11.10;90.70;;;;;;5050775;28;20907;-71
2023/11/09 08:52:27;;;;;;;9.60;3.20;;;11.10;89.30;;;;;;5050345;28;20416;-71
2023/11/09 08:54:56;;;;;;;6.33;3.00;;;11.10;90.00;;;;;;5052638;28;20556;-71
2023/11/09 08:57:22;;;;;;;5.07;2.73;;;11.20;88.80;;;;;;5054855;28;20867;-71
2023/11/09 08:59:47;;;;;;;11.23;2.88;;;11.20;86.90;;;;;;5057945;28;20453;-71
2023/11/09 09:02:13;;;;;;;8.73;3.72;;;11.20;87.70;;;;;;5039878;28;20421;-72
2023/11/09 09:04:40;;;;;;;10.75;3.20;;;11.30;86.90;;;;;;5057104;28;20440;-71
2023/11/09 09:07:06;;;;;;;6.20;3.10;;;11.40;86.10;;;;;;5056502;28;20393;-71
2023/11/09 09:09:32;;;;;;;12.65;3.72;;;11.60;83.20;;;;;;5054267;28;20462;-71
2023/11/09 09:11:59;;;;;;;15.32;4.18;;;11.70;82.40;;;;;;5054676;28;20412;-72
2023/11/09 09:14:24;;;;;;;9.75;3.67;;;11.70;78.60;;;;;;5055301;28;20442;-70
2023/11/09 09:16:50;;;;;;;9.18;3.40;;;11.80;76.90;;;;;;5054971;28;20468;-70
2023/11/09 09:19:17;;;;;;;10.43;3.00;;;11.90;68.20;;;;;;5054831;28;20373;-71
2023/11/09 09:21:43;;;;;;;7.35;3.28;;;11.90;69.80;;;;;;5058293;28;20377;-71
2023/11/09 09:24:09;;;;;;;10.18;3.63;;;12.00;66.90;;;;;;5060621;28;20385;-71
2023/11/09 09:26:34;;;;;;;10.65;3.33;;;12.20;62.50;;;;;;5059819;28;20386;-71
2023/11/09 09:29:01;;;;;;;10.73;3.30;;;12.40;61.00;;;;;;5061492;28;20393;-71
2023/11/09 09:31:28;;;;;;;10.98;2.90;;;12.40;59.40;;;;;;5063829;28;20409;-71
2023/11/09 09:34:07;;;;;;;8.27;2.90;;;12.50;55.50;;;;;;5064677;28;20382;-71
2023/11/09 09:36:37;;;;;;;10.40;2.93;;;12.60;53.40;;;;;;5063850;28;20735;-71
2023/11/09 09:39:03;;;;;;;11.53;3.00;;;12.70;54.00;;;;;;5063468;28;20447;-71
2023/11/09 09:41:50;;;;;;;12.38;3.10;;;12.90;52.10;;;;;;5063657;28;20386;-71
2023/11/09 09:44:17;;;;;;;11.38;3.10;;;12.80;50.70;;;;;;5064007;28;20817;-72
2023/11/09 09:46:45;;;;;;;11.40;3.50;;;12.80;51.90;;;;;;5063842;28;20389;-71
2023/11/09 09:49:14;;;;;;;11.57;3.58;;;12.80;51.40;;;;;;5055421;22;20420;-74
2023/11/09 09:51:40;;;;;;;14.75;3.65;;;12.70;51.20;;;;;;5034239;28;20465;-72
2023/11/09 09:54:10;;;;;;;14.10;4.00;;;12.70;52.40;;;;;;5034655;28;20508;-74
2023/11/09 09:56:40;;;;;;;13.40;3.50;;;12.60;50.00;;;;;;5034731;28;20652;-75
2023/11/09 09:59:10;;;;;;;12.40;3.70;;;12.70;51.10;;;;;;5034186;28;20387;-74
2023/11/09 10:01:40;;;;;;;11.45;3.50;;;12.70;48.30;;;;;;5033731;28;20379;-74
2023/11/09 10:04:06;;;;;;;14.95;3.30;;;12.70;49.70;;;;;;5033976;28;20387;-75
2023/11/09 10:06:32;;;;;;;10.27;3.13;;;12.70;49.60;;;;;;5032397;28;20387;-75
2023/11/09 10:08:58;;;;;;;8.45;3.17;;;12.60;51.00;;;;;;5033798;28;20390;-74
2023/11/09 10:11:24;;;;;;;19.27;3.80;;;12.70;51.00;;;;;;5033824;28;20979;-76
2023/11/09 10:13:50;;;;;;;16.50;3.80;;;12.80;50.30;;;;;;5033776;28;20387;-72
2023/11/09 10:16:18;;;;;;;17.47;3.80;;;13.00;49.80;;;;;;5032146;28;20445;-75
2023/11/09 10:18:47;;;;;;;12.88;3.50;;;13.10;48.50;;;;;;5034435;28;20870;-75
2023/11/09 10:21:12;;;;;;;14.25;3.75;;;13.10;47.30;;;;;;5033730;28;20481;-72
2023/11/09 10:23:39;;;;;;;12.10;3.55;;;13.00;47.00;;;;;;5034043;28;20482;-74
2023/11/09 10:26:14;;;;;;;18.73;3.40;;;13.10;46.80;;;;;;5034255;28;20394;-73
2023/11/09 10:28:39;;;;;;;15.23;3.10;;;13.10;47.50;;;;;;5034446;28;20444;-75
2023/11/09 10:31:05;;;;;;;9.90;3.60;;;13.00;45.50;;;;;;5034767;28;20391;-73
2023/11/09 10:33:34;;;;;;;10.13;2.70;;;13.10;44.50;;;;;;5036071;28;20387;-73
2023/11/09 10:36:01;;;;;;;12.93;3.20;;;13.20;45.30;;;;;;5036050;28;20393;-76
2023/11/09 10:38:32;;;;;;;11.15;3.22;;;13.00;46.20;;;;;;5037071;28;20581;-75
2023/11/09 10:41:00;;;;;;;9.93;3.20;;;12.90;46.70;;;;;;5034632;28;20410;-75
2023/11/09 10:43:26;;;;;;;11.98;3.58;;;12.80;47.20;;;;;;5034271;28;20710;-75
2023/11/09 10:45:52;;;;;;;12.40;3.10;;;12.80;46.50;;;;;;5034581;28;20387;-75
2023/11/09 10:48:18;;;;;;;13.45;3.67;;;13.00;45.10;;;;;;5033015;28;20410;-76
2023/11/09 10:50:47;;;;;;;14.13;3.65;;;13.00;45.70;;;;;;5034401;28;20419;-76
2023/11/09 10:53:19;;;;;;;16.10;3.95;;;13.10;45.90;;;;;;5034013;28;20457;-74
2023/11/09 10:55:49;;;;;;;12.07;3.40;;;13.10;45.10;;;;;;5032941;28;20792;-76
2023/11/09 10:58:20;;;;;;;16.23;4.15;;;13.10;46.50;;;;;;5031621;28;20437;-76
2023/11/09 11:00:58;;;;;;;11.73;3.30;;;13.20;45.80;;;;;;5033504;28;20762;-75
2023/11/09 11:03:36;;;;;;;11.30;3.38;;;13.30;44.20;;;;;;5032562;28;20386;-73
2023/11/09 11:06:09;;;;;;;18.00;4.00;;;13.30;44.80;;;;;;5032506;28;20376;-74
2023/11/09 11:08:44;;;;;;;8.85;3.03;;;13.20;45.70;;;;;;5032989;28;20387;-74
2023/11/09 11:11:16;;;;;;;11.55;3.88;;;13.20;46.10;;;;;;5031526;28;20745;-74
2023/11/09 11:13:48;;;;;;;14.10;4.32;;;13.30;45.30;;;;;;5032751;28;20386;-73
2023/11/09 11:16:17;;;;;;;11.27;4.00;;;13.30;46.40;;;;;;5033164;28;20444;-75
2023/11/09 11:18:49;;;;;;;14.87;4.07;;;13.30;46.30;;;;;;5032015;28;20422;-73
2023/11/09 11:21:45;;;;;;;15.60;4.10;;;13.30;45.90;;;;;;5032654;28;20390;-75
2023/11/09 11:24:16;;;;;;;12.68;3.72;;;13.30;46.70;;;;;;5039422;28;20742;-75
2023/11/09 11:27:06;;;;;;;17.38;3.92;;;13.20;45.50;;;;;;5035360;28;20793;-74
2023/11/09 11:29:35;;;;;;;14.48;4.70;;;13.20;44.40;;;;;;5032524;28;20379;-76
2023/11/09 11:32:03;;;;;;;15.20;4.70;;;13.10;45.10;;;;;;5031231;28;20430;-75
2023/11/09 11:34:48;;;;;;;14.00;3.80;;;13.10;46.00;;;;;;5032666;28;20418;-74
2023/11/09 11:37:26;;;;;;;15.68;3.60;;;13.10;44.90;;;;;;5032981;28;20383;-74
2023/11/09 11:39:53;;;;;;;17.20;3.80;;;13.10;45.70;;;;;;5033548;28;20391;-73
2023/11/09 11:42:22;;;;;;;12.02;3.70;;;13.10;44.30;;;;;;5034118;28;20383;-74
2023/11/09 11:44:52;;;;;;;10.73;3.28;;;13.00;44.50;;;;;;5033238;28;20449;-74
2023/11/09 11:47:20;;;;;;;9.63;3.23;;;12.90;46.20;;;;;;5032355;28;20416;-73
2023/11/09 11:49:49;;;;;;;14.50;3.93;;;12.90;46.00;;;;;;5030321;28;20395;-75
2023/11/09 11:52:18;;;;;;;14.80;4.65;;;13.00;44.30;;;;;;5032397;28;20456;-74
2023/11/09 11:54:44;;;;;;;19.55;6.80;;;13.10;44.70;;;;;;5032993;28;20383;-73
2023/11/09 11:57:11;;;;;;;28.80;9.35;;;13.10;44.50;;;;;;5031775;28;20375;-75
2023/11/09 11:59:39;;;;;;;34.88;8.70;;;13.20;44.80;;;;;;5033172;28;20391;-75
2023/11/09 12:02:09;;;;;;;15.03;5.50;;;13.20;43.90;;;;;;5034387;28;20401;-74
2023/11/09 12:04:35;;;;;;;16.80;5.97;;;13.20;43.80;;;;;;5034668;28;20466;-75
2023/11/09 12:07:10;;;;;;;13.40;4.23;;;13.10;44.30;;;;;;5032387;28;20422;-73
2023/11/09 12:09:36;;;;;;;14.97;5.10;;;13.20;43.70;;;;;;5032963;28;20482;-74
2023/11/09 12:12:02;;;;;;;14.70;5.20;;;13.20;40.80;;;;;;5031956;28;20407;-76
2023/11/09 12:14:28;;;;;;;14.05;4.20;;;13.10;42.40;;;;;;5032155;28;20494;-74
2023/11/09 12:16:54;;;;;;;18.48;4.85;;;13.20;40.70;;;;;;5032235;28;20703;-75
2023/11/09 12:19:20;;;;;;;15.70;5.32;;;13.20;42.10;;;;;;5033328;28;20375;-75
2023/11/09 12:21:46;;;;;;;15.90;4.32;;;13.20;40.80;;;;;;5032097;28;21004;-75
2023/11/09 12:24:17;;;;;;;14.60;4.20;;;13.10;40.80;;;;;;5031804;28;20436;-75
2023/11/09 12:26:44;;;;;;;15.27;4.78;;;13.20;41.20;;;;;;5031626;28;20395;-74
2023/11/09 12:29:10;;;;;;;18.08;3.65;;;13.20;38.70;;;;;;5036169;28;20380;-74
2023/11/09 12:31:35;;;;;;;14.88;4.00;;;13.30;39.40;;;;;;5036971;28;20410;-75
2023/11/09 12:34:08;;;;;;;17.08;4.10;;;13.20;39.50;;;;;;5033540;28;20391;-73
2023/11/09 12:36:37;;;;;;;13.50;3.85;;;13.20;38.00;;;;;;5032268;28;20807;-73
2023/11/09 12:39:28;;;;;;;20.95;4.60;;;13.10;39.80;;;;;;5033091;28;20399;-75
2023/11/09 12:41:51;;;;;;;18.13;4.80;;;13.10;38.90;;;;;;5033465;28;20425;-74
2023/11/09 12:44:24;;;;;;;15.52;3.92;;;13.20;38.00;;;;;;5033179;28;20387;-75
2023/11/09 12:46:50;;;;;;;16.50;4.13;;;13.20;37.20;;;;;;5035678;28;20451;-73
2023/11/09 12:49:15;;;;;;;10.85;3.30;;;13.10;36.20;;;;;;5039231;28;20403;-72
2023/11/09 12:51:41;;;;;;;14.40;4.00;;;13.10;35.90;;;;;;5035667;28;20410;-73